Acadie — FV7722 — position and weather

sailwx.info

Track history (hours):
 
Tides and Currents Weather Stations Pressure Air Temp Water Temp Dewpoint Dewpoint Depression Visibility Wind Speed Wind Dir Waves Ship Positions

Acadie

Last reported at 2016-Dec-05 16:22 UTC. Time now 2016-Dec-08 04:09 UTC.
Position N 47°44' W 003°21'.

Length 45 m.

Type: Passenger vessel. MMSI: 227002780.

Date/timePositionNaut miles runAvg speedWind from/ knotsBaromVisibWave heightAir tempDewpointWater temp
2016-Dec-05 16:22N 47°44' W 003°21'7 8.5
2016-Dec-05 15:34N 47°39' W 003°27'7 6.9
2016-Dec-05 14:33N 47°44' W 003°21'0 0.0
2016-Dec-05 13:33N 47°44' W 003°21'6 5.7
2016-Dec-05 12:33N 47°40' W 003°26'1 0.6
2016-Dec-05 11:33N 47°40' W 003°25'4 4.1
2016-Dec-05 10:33N 47°44' W 003°22'1 0.7
2016-Dec-05 09:33N 47°44' W 003°21'6 5.6
2016-Dec-05 08:33N 47°40' W 003°26'6 5.8
2016-Dec-05 07:33N 47°44' W 003°21'  
Track history (hours):
 
Tides and Currents Weather Stations Pressure Air Temp Water Temp Dewpoint Dewpoint Depression Visibility Wind Speed Wind Dir Waves Ship Positions

Acadie

Last reported at 2016-Dec-05 16:22 UTC. Time now 2016-Dec-08 04:09 UTC.
Position N 47°44' W 003°21'.

Length 45 m.

Type: Passenger vessel. MMSI: 227002780.

Date/timePositionNaut miles runAvg speedWind from/ knotsBaromVisibWave heightAir tempDewpointWater temp
2016-Dec-05 16:22N 47°44' W 003°21'7 8.5
2016-Dec-05 15:34N 47°39' W 003°27'7 6.9
2016-Dec-05 14:33N 47°44' W 003°21'0 0.0
2016-Dec-05 13:33N 47°44' W 003°21'6 5.7
2016-Dec-05 12:33N 47°40' W 003°26'1 0.6
2016-Dec-05 11:33N 47°40' W 003°25'4 4.1
2016-Dec-05 10:33N 47°44' W 003°22'1 0.7
2016-Dec-05 09:33N 47°44' W 003°21'6 5.6
2016-Dec-05 08:33N 47°40' W 003°26'6 5.8
2016-Dec-05 07:33N 47°44' W 003°21'  

Dump ship's entire track history